sensor_id;sensor_type;location;lat;lon;timestamp;pressure;altitude;pressure_sealevel;temperature;humidity
70229;BME280;57617;51.988;5.854;2022-12-18T00:00:44;102424.81;;;-0.29;67.99
70229;BME280;57617;51.988;5.854;2022-12-18T00:03:12;102423.53;;;-0.34;68.81
70229;BME280;57617;51.988;5.854;2022-12-18T00:05:37;102418.63;;;-0.29;68.81
70229;BME280;57617;51.988;5.854;2022-12-18T00:08:02;102406.56;;;-0.24;68.79
70229;BME280;57617;51.988;5.854;2022-12-18T00:10:28;102390.72;;;-0.25;68.33
70229;BME280;57617;51.988;5.854;2022-12-18T00:12:54;102401.84;;;-0.20;68.46
70229;BME280;57617;51.988;5.854;2022-12-18T00:15:19;102405.34;;;-0.20;68.33
70229;BME280;57617;51.988;5.854;2022-12-18T00:17:44;102407.69;;;-0.26;67.89
70229;BME280;57617;51.988;5.854;2022-12-18T00:20:10;102404.44;;;-0.30;68.37
70229;BME280;57617;51.988;5.854;2022-12-18T00:22:35;102400.94;;;-0.30;68.25
70229;BME280;57617;51.988;5.854;2022-12-18T00:25:01;102395.72;;;-0.32;68.29
70229;BME280;57617;51.988;5.854;2022-12-18T00:27:26;102402.19;;;-0.34;68.19
70229;BME280;57617;51.988;5.854;2022-12-18T00:29:51;102404.25;;;-0.38;68.04
70229;BME280;57617;51.988;5.854;2022-12-18T00:32:16;102374.38;;;-0.52;68.23
70229;BME280;57617;51.988;5.854;2022-12-18T00:34:42;102393.13;;;-0.43;67.87
70229;BME280;57617;51.988;5.854;2022-12-18T00:37:07;102385.66;;;-0.48;68.05
70229;BME280;57617;51.988;5.854;2022-12-18T00:39:32;102393.06;;;-0.52;68.13
70229;BME280;57617;51.988;5.854;2022-12-18T00:41:58;102379.13;;;-0.56;68.36
70229;BME280;57617;51.988;5.854;2022-12-18T00:44:41;102362.75;;;-0.72;68.65
70229;BME280;57617;51.988;5.854;2022-12-18T00:47:07;102407.50;;;-0.55;68.26
70229;BME280;57617;51.988;5.854;2022-12-18T00:49:32;102405.56;;;-0.52;68.64
70229;BME280;57617;51.988;5.854;2022-12-18T00:51:57;102407.13;;;-0.50;68.23
70229;BME280;57617;51.988;5.854;2022-12-18T00:54:22;102405.91;;;-0.46;68.32
70229;BME280;57617;51.988;5.854;2022-12-18T00:56:48;102404.63;;;-0.42;68.50
70229;BME280;57617;51.988;5.854;2022-12-18T00:59:13;102392.41;;;-0.45;68.42
70229;BME280;57617;51.988;5.854;2022-12-18T01:01:38;102391.69;;;-0.47;68.18
70229;BME280;57617;51.988;5.854;2022-12-18T01:04:04;102399.00;;;-0.48;68.12
70229;BME280;57617;51.988;5.854;2022-12-18T01:06:29;102413.44;;;-0.51;68.08
70229;BME280;57617;51.988;5.854;2022-12-18T01:08:55;102421.59;;;-0.52;68.05
70229;BME280;57617;51.988;5.854;2022-12-18T01:11:21;102400.94;;;-0.51;68.13
70229;BME280;57617;51.988;5.854;2022-12-18T01:13:47;102391.91;;;-0.59;67.54
70229;BME280;57617;51.988;5.854;2022-12-18T01:16:13;102398.81;;;-0.57;68.03
70229;BME280;57617;51.988;5.854;2022-12-18T01:18:39;102392.94;;;-0.51;68.41
70229;BME280;57617;51.988;5.854;2022-12-18T01:21:09;102379.88;;;-0.53;67.61
70229;BME280;57617;51.988;5.854;2022-12-18T01:23:36;102377.34;;;-0.55;67.93
70229;BME280;57617;51.988;5.854;2022-12-18T01:26:11;102371.13;;;-0.56;68.19
70229;BME280;57617;51.988;5.854;2022-12-18T01:28:37;102377.69;;;-0.60;67.70
70229;BME280;57617;51.988;5.854;2022-12-18T01:33:43;102372.78;;;-0.64;67.94
70229;BME280;57617;51.988;5.854;2022-12-18T01:36:15;102400.75;;;-0.58;68.07
70229;BME280;57617;51.988;5.854;2022-12-18T01:38:40;102398.69;;;-0.55;68.25
70229;BME280;57617;51.988;5.854;2022-12-18T01:41:06;102402.91;;;-0.52;67.49
70229;BME280;57617;51.988;5.854;2022-12-18T01:43:54;102395.44;;;-0.58;67.23
70229;BME280;57617;51.988;5.854;2022-12-18T01:46:22;102405.75;;;-0.65;67.05
70229;BME280;57617;51.988;5.854;2022-12-18T01:48:53;102393.19;;;-0.74;67.49
70229;BME280;57617;51.988;5.854;2022-12-18T01:51:20;102404.72;;;-0.73;67.74
70229;BME280;57617;51.988;5.854;2022-12-18T01:53:47;102402.75;;;-0.72;67.82
70229;BME280;57617;51.988;5.854;2022-12-18T01:56:15;102395.75;;;-0.73;67.65
70229;BME280;57617;51.988;5.854;2022-12-18T02:01:10;102404.31;;;-0.69;67.84
70229;BME280;57617;51.988;5.854;2022-12-18T02:03:36;102399.84;;;-0.68;67.83
70229;BME280;57617;51.988;5.854;2022-12-18T02:09:21;102402.69;;;-0.61;67.37
70229;BME280;57617;51.988;5.854;2022-12-18T02:11:58;102412.78;;;-0.64;67.09
70229;BME280;57617;51.988;5.854;2022-12-18T02:17:19;102398.66;;;-0.76;67.76
70229;BME280;57617;51.988;5.854;2022-12-18T02:20:01;102415.13;;;-0.71;67.65
70229;BME280;57617;51.988;5.854;2022-12-18T02:27:52;102402.75;;;-0.72;67.32
70229;BME280;57617;51.988;5.854;2022-12-18T02:30:19;102403.47;;;-0.70;67.58
70229;BME280;57617;51.988;5.854;2022-12-18T02:32:50;102402.38;;;-0.67;67.64
70229;BME280;57617;51.988;5.854;2022-12-18T02:35:20;102391.22;;;-0.72;67.06
70229;BME280;57617;51.988;5.854;2022-12-18T02:37:47;102396.56;;;-0.72;67.11
70229;BME280;57617;51.988;5.854;2022-12-18T02:40:14;102405.44;;;-0.72;67.11
70229;BME280;57617;51.988;5.854;2022-12-18T02:42:40;102411.47;;;-0.70;67.37
70229;BME280;57617;51.988;5.854;2022-12-18T02:45:06;102398.66;;;-0.76;66.09
70229;BME280;57617;51.988;5.854;2022-12-18T02:47:34;102403.53;;;-0.81;67.18
70229;BME280;57617;51.988;5.854;2022-12-18T02:50:45;102397.38;;;-0.81;67.05
70229;BME280;57617;51.988;5.854;2022-12-18T02:53:24;102392.28;;;-0.84;67.08
70229;BME280;57617;51.988;5.854;2022-12-18T02:58:45;102392.16;;;-0.82;67.42
70229;BME280;57617;51.988;5.854;2022-12-18T03:01:23;102394.53;;;-0.80;67.20
70229;BME280;57617;51.988;5.854;2022-12-18T03:06:26;102391.81;;;-0.89;66.65
70229;BME280;57617;51.988;5.854;2022-12-18T03:08:58;102389.28;;;-0.91;66.75
70229;BME280;57617;51.988;5.854;2022-12-18T03:11:26;102385.91;;;-0.93;66.92
70229;BME280;57617;51.988;5.854;2022-12-18T03:14:15;102390.00;;;-0.88;67.36
70229;BME280;57617;51.988;5.854;2022-12-18T03:16:43;102375.81;;;-0.89;67.15
70229;BME280;57617;51.988;5.854;2022-12-18T03:19:16;102376.69;;;-0.88;67.09
70229;BME280;57617;51.988;5.854;2022-12-18T03:21:47;102378.59;;;-0.91;66.77
70229;BME280;57617;51.988;5.854;2022-12-18T03:24:15;102373.28;;;-0.91;66.96
70229;BME280;57617;51.988;5.854;2022-12-18T03:26:44;102369.91;;;-0.93;66.66
70229;BME280;57617;51.988;5.854;2022-12-18T03:29:21;102369.44;;;-0.98;67.27
70229;BME280;57617;51.988;5.854;2022-12-18T03:31:51;102373.16;;;-0.89;66.87
70229;BME280;57617;51.988;5.854;2022-12-18T03:34:27;102360.56;;;-0.87;67.48
70229;BME280;57617;51.988;5.854;2022-12-18T03:36:54;102365.88;;;-0.87;66.15
70229;BME280;57617;51.988;5.854;2022-12-18T03:39:19;102359.13;;;-0.91;66.76
70229;BME280;57617;51.988;5.854;2022-12-18T03:41:56;102356.13;;;-0.98;66.29
70229;BME280;57617;51.988;5.854;2022-12-18T03:44:57;102359.25;;;-0.93;66.80
70229;BME280;57617;51.988;5.854;2022-12-18T03:52:30;102343.50;;;-0.96;66.81
70229;BME280;57617;51.988;5.854;2022-12-18T03:55:00;102344.88;;;-1.01;66.98
70229;BME280;57617;51.988;5.854;2022-12-18T03:57:28;102348.97;;;-0.97;67.13
70229;BME280;57617;51.988;5.854;2022-12-18T03:59:59;102348.00;;;-0.96;66.43
70229;BME280;57617;51.988;5.854;2022-12-18T04:02:25;102345.19;;;-0.94;66.94
70229;BME280;57617;51.988;5.854;2022-12-18T04:04:53;102344.34;;;-0.95;66.77
70229;BME280;57617;51.988;5.854;2022-12-18T04:07:21;102343.63;;;-0.97;67.37
70229;BME280;57617;51.988;5.854;2022-12-18T04:09:48;102345.44;;;-0.98;66.68
70229;BME280;57617;51.988;5.854;2022-12-18T04:12:15;102351.47;;;-0.96;66.74
70229;BME280;57617;51.988;5.854;2022-12-18T04:14:40;102348.81;;;-0.96;66.94
70229;BME280;57617;51.988;5.854;2022-12-18T04:17:05;102339.00;;;-0.95;66.58
70229;BME280;57617;51.988;5.854;2022-12-18T04:19:31;102341.56;;;-0.93;66.33
70229;BME280;57617;51.988;5.854;2022-12-18T04:21:56;102322.31;;;-0.97;66.67
70229;BME280;57617;51.988;5.854;2022-12-18T04:24:21;102341.22;;;-1.00;65.59
70229;BME280;57617;51.988;5.854;2022-12-18T04:26:47;102330.81;;;-1.03;66.86
70229;BME280;57617;51.988;5.854;2022-12-18T04:29:12;102331.78;;;-1.04;66.26
70229;BME280;57617;51.988;5.854;2022-12-18T04:31:37;102324.06;;;-1.07;66.54
70229;BME280;57617;51.988;5.854;2022-12-18T04:34:03;102318.38;;;-1.13;66.26
70229;BME280;57617;51.988;5.854;2022-12-18T04:36:28;102320.78;;;-1.11;67.16
70229;BME280;57617;51.988;5.854;2022-12-18T04:38:54;102320.66;;;-1.09;66.90
70229;BME280;57617;51.988;5.854;2022-12-18T04:41:19;102327.44;;;-1.05;67.13
70229;BME280;57617;51.988;5.854;2022-12-18T04:43:45;102320.75;;;-0.99;66.76
70229;BME280;57617;51.988;5.854;2022-12-18T04:46:10;102311.09;;;-1.12;66.08
70229;BME280;57617;51.988;5.854;2022-12-18T04:48:36;102323.72;;;-1.13;66.20
70229;BME280;57617;51.988;5.854;2022-12-18T04:51:01;102328.06;;;-1.13;66.58
70229;BME280;57617;51.988;5.854;2022-12-18T04:53:27;102327.09;;;-1.12;66.49
70229;BME280;57617;51.988;5.854;2022-12-18T04:56:22;102331.91;;;-1.06;66.46
70229;BME280;57617;51.988;5.854;2022-12-18T04:58:47;102328.28;;;-1.04;66.69
70229;BME280;57617;51.988;5.854;2022-12-18T05:01:14;102322.97;;;-1.04;66.97
70229;BME280;57617;51.988;5.854;2022-12-18T05:03:40;102323.66;;;-1.02;66.67
70229;BME280;57617;51.988;5.854;2022-12-18T05:06:06;102339.25;;;-0.98;66.39
70229;BME280;57617;51.988;5.854;2022-12-18T05:08:32;102339.41;;;-0.99;66.52
70229;BME280;57617;51.988;5.854;2022-12-18T05:11:02;102344.13;;;-1.03;66.30
70229;BME280;57617;51.988;5.854;2022-12-18T05:13:28;102346.78;;;-1.03;66.51
70229;BME280;57617;51.988;5.854;2022-12-18T05:15:54;102352.28;;;-1.04;66.87
70229;BME280;57617;51.988;5.854;2022-12-18T05:18:19;102356.28;;;-1.10;67.04
70229;BME280;57617;51.988;5.854;2022-12-18T05:20:44;102361.50;;;-1.08;66.27
70229;BME280;57617;51.988;5.854;2022-12-18T05:23:10;102362.59;;;-1.11;66.40
70229;BME280;57617;51.988;5.854;2022-12-18T05:25:35;102359.66;;;-1.08;66.65
70229;BME280;57617;51.988;5.854;2022-12-18T05:28:00;102372.88;;;-1.07;66.32
70229;BME280;57617;51.988;5.854;2022-12-18T05:30:26;102360.56;;;-1.18;66.14
70229;BME280;57617;51.988;5.854;2022-12-18T05:32:51;102366.59;;;-1.17;66.13
70229;BME280;57617;51.988;5.854;2022-12-18T05:35:16;102382.47;;;-1.15;66.94
70229;BME280;57617;51.988;5.854;2022-12-18T05:37:42;102387.94;;;-1.17;66.78
70229;BME280;57617;51.988;5.854;2022-12-18T05:40:07;102395.81;;;-1.15;66.46
70229;BME280;57617;51.988;5.854;2022-12-18T05:42:33;102401.25;;;-1.17;66.02
70229;BME280;57617;51.988;5.854;2022-12-18T05:44:58;102410.69;;;-1.13;66.97
70229;BME280;57617;51.988;5.854;2022-12-18T05:47:23;102389.38;;;-1.13;66.01
70229;BME280;57617;51.988;5.854;2022-12-18T05:49:49;102390.09;;;-1.11;66.15
70229;BME280;57617;51.988;5.854;2022-12-18T05:52:14;102388.53;;;-1.13;66.52
70229;BME280;57617;51.988;5.854;2022-12-18T05:54:39;102375.34;;;-1.14;66.40
70229;BME280;57617;51.988;5.854;2022-12-18T05:57:05;102359.59;;;-1.17;66.55
70229;BME280;57617;51.988;5.854;2022-12-18T05:59:30;102349.91;;;-1.18;66.55
70229;BME280;57617;51.988;5.854;2022-12-18T06:01:56;102343.38;;;-1.14;66.80
70229;BME280;57617;51.988;5.854;2022-12-18T06:04:21;102346.28;;;-1.17;66.40
70229;BME280;57617;51.988;5.854;2022-12-18T06:06:46;102341.41;;;-1.13;66.67
70229;BME280;57617;51.988;5.854;2022-12-18T06:09:11;102341.97;;;-1.09;66.74
70229;BME280;57617;51.988;5.854;2022-12-18T06:11:38;102347.06;;;-1.06;66.68
70229;BME280;57617;51.988;5.854;2022-12-18T06:14:04;102327.69;;;-1.08;66.65
70229;BME280;57617;51.988;5.854;2022-12-18T06:16:30;102322.63;;;-1.11;66.23
70229;BME280;57617;51.988;5.854;2022-12-18T06:18:59;102332.06;;;-1.07;66.60
70229;BME280;57617;51.988;5.854;2022-12-18T06:21:25;102333.63;;;-1.04;66.64
70229;BME280;57617;51.988;5.854;2022-12-18T06:23:51;102338.09;;;-1.05;66.55
70229;BME280;57617;51.988;5.854;2022-12-18T06:26:16;102343.44;;;-1.05;66.59
70229;BME280;57617;51.988;5.854;2022-12-18T06:28:41;102325.75;;;-1.06;66.51
70229;BME280;57617;51.988;5.854;2022-12-18T06:31:07;102328.28;;;-1.04;66.20
70229;BME280;57617;51.988;5.854;2022-12-18T06:33:34;102320.41;;;-1.06;66.34
70229;BME280;57617;51.988;5.854;2022-12-18T06:36:02;102314.22;;;-1.07;66.13
70229;BME280;57617;51.988;5.854;2022-12-18T06:38:27;102316.88;;;-1.07;66.57
70229;BME280;57617;51.988;5.854;2022-12-18T06:40:53;102319.56;;;-1.07;66.92
70229;BME280;57617;51.988;5.854;2022-12-18T06:43:18;102284.75;;;-1.26;66.08
70229;BME280;57617;51.988;5.854;2022-12-18T06:45:43;102314.50;;;-1.09;66.94
70229;BME280;57617;51.988;5.854;2022-12-18T06:48:08;102316.19;;;-1.08;66.95
70229;BME280;57617;51.988;5.854;2022-12-18T06:50:34;102310.47;;;-1.04;66.81
70229;BME280;57617;51.988;5.854;2022-12-18T06:52:59;102309.00;;;-1.08;66.20
70229;BME280;57617;51.988;5.854;2022-12-18T06:55:25;102298.50;;;-1.09;66.29
70229;BME280;57617;51.988;5.854;2022-12-18T06:57:50;102295.69;;;-1.08;66.89
70229;BME280;57617;51.988;5.854;2022-12-18T07:00:15;102285.75;;;-1.06;65.92
70229;BME280;57617;51.988;5.854;2022-12-18T07:02:41;102279.97;;;-1.11;66.16
70229;BME280;57617;51.988;5.854;2022-12-18T07:05:07;102274.88;;;-1.14;66.63
70229;BME280;57617;51.988;5.854;2022-12-18T07:07:33;102274.56;;;-1.21;66.44
70229;BME280;57617;51.988;5.854;2022-12-18T07:09:59;102282.44;;;-1.19;66.96
70229;BME280;57617;51.988;5.854;2022-12-18T07:12:26;102290.06;;;-1.14;66.93
70229;BME280;57617;51.988;5.854;2022-12-18T07:14:51;102284.00;;;-1.17;66.46
70229;BME280;57617;51.988;5.854;2022-12-18T07:17:17;102283.63;;;-1.12;67.10
70229;BME280;57617;51.988;5.854;2022-12-18T07:19:42;102292.19;;;-1.08;66.68
70229;BME280;57617;51.988;5.854;2022-12-18T07:22:07;102291.47;;;-1.11;66.09
70229;BME280;57617;51.988;5.854;2022-12-18T07:24:33;102295.84;;;-1.09;66.52
70229;BME280;57617;51.988;5.854;2022-12-18T07:26:59;102292.19;;;-1.08;66.10
70229;BME280;57617;51.988;5.854;2022-12-18T07:29:24;102286.75;;;-1.07;66.75
70229;BME280;57617;51.988;5.854;2022-12-18T07:31:49;102285.75;;;-1.06;66.94
70229;BME280;57617;51.988;5.854;2022-12-18T07:34:15;102283.69;;;-1.02;66.62
70229;BME280;57617;51.988;5.854;2022-12-18T07:36:40;102282.56;;;-1.00;66.56
70229;BME280;57617;51.988;5.854;2022-12-18T07:39:06;102279.19;;;-1.02;66.32
70229;BME280;57617;51.988;5.854;2022-12-18T07:41:31;102268.22;;;-1.08;66.65
70229;BME280;57617;51.988;5.854;2022-12-18T07:43:56;102267.44;;;-0.99;66.72
70229;BME280;57617;51.988;5.854;2022-12-18T07:46:22;102263.66;;;-0.97;66.65
70229;BME280;57617;51.988;5.854;2022-12-18T07:48:47;102258.34;;;-0.97;66.81
70229;BME280;57617;51.988;5.854;2022-12-18T07:51:12;102244.84;;;-0.96;66.56
70229;BME280;57617;51.988;5.854;2022-12-18T07:53:38;102257.91;;;-0.93;66.81
70229;BME280;57617;51.988;5.854;2022-12-18T07:56:10;102237.00;;;-0.97;66.71
70229;BME280;57617;51.988;5.854;2022-12-18T07:58:35;102241.06;;;-0.93;66.52
70229;BME280;57617;51.988;5.854;2022-12-18T08:01:11;102239.28;;;-0.83;66.56
70229;BME280;57617;51.988;5.854;2022-12-18T08:03:38;102241.25;;;-0.85;66.31
70229;BME280;57617;51.988;5.854;2022-12-18T08:06:06;102246.91;;;-0.78;66.66
70229;BME280;57617;51.988;5.854;2022-12-18T08:08:32;102241.44;;;-0.77;66.58
70229;BME280;57617;51.988;5.854;2022-12-18T08:10:57;102159.97;;;-1.21;66.26
70229;BME280;57617;51.988;5.854;2022-12-18T08:13:23;102237.59;;;-0.63;66.58
70229;BME280;57617;51.988;5.854;2022-12-18T08:16:13;102230.41;;;-0.63;66.27
70229;BME280;57617;51.988;5.854;2022-12-18T08:18:39;102221.88;;;-0.57;66.55
70229;BME280;57617;51.988;5.854;2022-12-18T08:21:12;102229.50;;;-0.52;66.34
70229;BME280;57617;51.988;5.854;2022-12-18T08:23:38;102225.25;;;-0.55;66.44
70229;BME280;57617;51.988;5.854;2022-12-18T08:26:04;102224.41;;;-0.56;66.68
70229;BME280;57617;51.988;5.854;2022-12-18T08:28:29;102224.59;;;-0.47;66.42
70229;BME280;57617;51.988;5.854;2022-12-18T08:30:54;102223.75;;;-0.39;66.28
70229;BME280;57617;51.988;5.854;2022-12-18T08:33:20;102212.69;;;-0.34;66.13
70229;BME280;57617;51.988;5.854;2022-12-18T08:35:45;102210.72;;;-0.32;66.42
70229;BME280;57617;51.988;5.854;2022-12-18T08:38:10;102214.94;;;-0.30;66.07
70229;BME280;57617;51.988;5.854;2022-12-18T08:40:35;102220.16;;;-0.28;66.42
70229;BME280;57617;51.988;5.854;2022-12-18T08:43:01;102213.69;;;-0.26;66.28
70229;BME280;57617;51.988;5.854;2022-12-18T08:45:45;102230.44;;;-0.14;66.13
70229;BME280;57617;51.988;5.854;2022-12-18T08:48:10;102228.22;;;-0.09;66.15
70229;BME280;57617;51.988;5.854;2022-12-18T08:50:36;102228.63;;;-0.04;66.24
70229;BME280;57617;51.988;5.854;2022-12-18T08:53:01;102230.31;;;-0.03;65.75
70229;BME280;57617;51.988;5.854;2022-12-18T08:55:26;102229.34;;;-0.02;65.80
70229;BME280;57617;51.988;5.854;2022-12-18T08:57:51;102217.25;;;-0.06;66.08
70229;BME280;57617;51.988;5.854;2022-12-18T09:00:17;102236.22;;;0.00;65.68
70229;BME280;57617;51.988;5.854;2022-12-18T09:02:42;102223.72;;;0.01;66.15
70229;BME280;57617;51.988;5.854;2022-12-18T09:05:08;102218.94;;;0.04;65.68
70229;BME280;57617;51.988;5.854;2022-12-18T09:07:33;102222.06;;;0.09;66.28
70229;BME280;57617;51.988;5.854;2022-12-18T09:09:59;102231.06;;;0.18;65.53
70229;BME280;57617;51.988;5.854;2022-12-18T09:12:24;102236.38;;;0.27;65.68
70229;BME280;57617;51.988;5.854;2022-12-18T09:14:50;102227.00;;;0.33;65.98
70229;BME280;57617;51.988;5.854;2022-12-18T09:17:15;102218.41;;;0.39;66.04
70229;BME280;57617;51.988;5.854;2022-12-18T09:19:40;102213.63;;;0.42;65.92
70229;BME280;57617;51.988;5.854;2022-12-18T09:22:06;102214.16;;;0.46;65.49
70229;BME280;57617;51.988;5.854;2022-12-18T09:24:31;102208.69;;;0.47;65.15
70229;BME280;57617;51.988;5.854;2022-12-18T09:26:56;102210.66;;;0.55;66.12
70229;BME280;57617;51.988;5.854;2022-12-18T09:29:22;102224.44;;;0.60;65.71
70229;BME280;57617;51.988;5.854;2022-12-18T09:31:47;102206.03;;;0.57;65.73
70229;BME280;57617;51.988;5.854;2022-12-18T09:34:13;102216.69;;;0.66;65.19
70229;BME280;57617;51.988;5.854;2022-12-18T09:36:38;102203.34;;;0.66;65.34
70229;BME280;57617;51.988;5.854;2022-12-18T09:39:04;102205.16;;;0.75;65.54
70229;BME280;57617;51.988;5.854;2022-12-18T09:44:05;102216.97;;;0.82;65.64
70229;BME280;57617;51.988;5.854;2022-12-18T09:46:40;102218.91;;;0.90;65.67
70229;BME280;57617;51.988;5.854;2022-12-18T09:49:12;102206.81;;;0.95;65.05
70229;BME280;57617;51.988;5.854;2022-12-18T09:52:05;102209.47;;;0.95;64.32
70229;BME280;57617;51.988;5.854;2022-12-18T09:54:33;102203.81;;;0.98;64.15
70229;BME280;57617;51.988;5.854;2022-12-18T09:57:01;102201.88;;;1.00;63.99
70229;BME280;57617;51.988;5.854;2022-12-18T09:59:37;102194.38;;;1.04;64.22
70229;BME280;57617;51.988;5.854;2022-12-18T10:02:16;102194.66;;;1.10;64.06
70229;BME280;57617;51.988;5.854;2022-12-18T10:04:42;102187.03;;;1.15;64.51
70229;BME280;57617;51.988;5.854;2022-12-18T10:07:19;102177.69;;;1.19;64.20
70229;BME280;57617;51.988;5.854;2022-12-18T10:12:23;102178.28;;;1.23;63.71
70229;BME280;57617;51.988;5.854;2022-12-18T10:17:46;102175.00;;;1.29;63.86
70229;BME280;57617;51.988;5.854;2022-12-18T10:20:18;102178.78;;;1.36;64.54
70229;BME280;57617;51.988;5.854;2022-12-18T10:25:52;102153.16;;;1.33;63.50
70229;BME280;57617;51.988;5.854;2022-12-18T10:28:20;102145.50;;;1.38;63.45
70229;BME280;57617;51.988;5.854;2022-12-18T10:30:45;102156.47;;;1.45;63.59
70229;BME280;57617;51.988;5.854;2022-12-18T10:33:16;102146.31;;;1.48;63.91
70229;BME280;57617;51.988;5.854;2022-12-18T10:35:43;102155.59;;;1.54;63.12
70229;BME280;57617;51.988;5.854;2022-12-18T10:41:00;102143.13;;;1.62;62.73
70229;BME280;57617;51.988;5.854;2022-12-18T10:43:32;102143.81;;;1.64;63.68
70229;BME280;57617;51.988;5.854;2022-12-18T10:46:20;102149.88;;;1.66;62.83
70229;BME280;57617;51.988;5.854;2022-12-18T10:48:50;102140.13;;;1.65;63.21
70229;BME280;57617;51.988;5.854;2022-12-18T10:51:28;102133.63;;;1.68;63.20
70229;BME280;57617;51.988;5.854;2022-12-18T10:56:20;102113.13;;;1.76;62.93
70229;BME280;57617;51.988;5.854;2022-12-18T10:58:57;102113.84;;;1.78;62.93
70229;BME280;57617;51.988;5.854;2022-12-18T11:01:22;102115.66;;;1.78;63.17
70229;BME280;57617;51.988;5.854;2022-12-18T11:06:18;102117.28;;;1.88;62.67
70229;BME280;57617;51.988;5.854;2022-12-18T11:08:57;102111.63;;;1.91;62.45
70229;BME280;57617;51.988;5.854;2022-12-18T11:11:24;102094.41;;;1.94;63.26
70229;BME280;57617;51.988;5.854;2022-12-18T11:14:11;102101.47;;;1.95;61.21
70229;BME280;57617;51.988;5.854;2022-12-18T11:16:46;102108.34;;;1.97;61.97
70229;BME280;57617;51.988;5.854;2022-12-18T11:21:41;102098.00;;;2.02;62.68
70229;BME280;57617;51.988;5.854;2022-12-18T11:24:17;102091.31;;;2.06;62.75
70229;BME280;57617;51.988;5.854;2022-12-18T11:26:44;102079.63;;;2.07;62.27
70229;BME280;57617;51.988;5.854;2022-12-18T11:29:16;102071.59;;;2.07;62.22
70229;BME280;57617;51.988;5.854;2022-12-18T11:31:42;102065.53;;;2.05;61.65
70229;BME280;57617;51.988;5.854;2022-12-18T11:34:22;102058.88;;;2.09;61.03
70229;BME280;57617;51.988;5.854;2022-12-18T11:36:51;102066.63;;;2.12;61.60
70229;BME280;57617;51.988;5.854;2022-12-18T11:39:20;102060.41;;;2.12;62.25
70229;BME280;57617;51.988;5.854;2022-12-18T11:42:04;102065.81;;;2.20;61.73
70229;BME280;57617;51.988;5.854;2022-12-18T11:49:42;102069.72;;;2.25;62.18
70229;BME280;57617;51.988;5.854;2022-12-18T11:52:21;102066.41;;;2.31;62.30
70229;BME280;57617;51.988;5.854;2022-12-18T11:54:53;102057.06;;;2.35;61.74
70229;BME280;57617;51.988;5.854;2022-12-18T12:00:03;102060.41;;;2.37;61.25
70229;BME280;57617;51.988;5.854;2022-12-18T12:02:45;102050.25;;;2.41;61.25
70229;BME280;57617;51.988;5.854;2022-12-18T12:13:27;102012.59;;;2.50;61.43
70229;BME280;57617;51.988;5.854;2022-12-18T12:19:16;102014.09;;;2.53;60.88
70229;BME280;57617;51.988;5.854;2022-12-18T12:21:55;102005.75;;;2.56;60.71
70229;BME280;57617;51.988;5.854;2022-12-18T12:24:44;102007.06;;;2.52;59.01
70229;BME280;57617;51.988;5.854;2022-12-18T12:27:23;102008.25;;;2.57;60.79
70229;BME280;57617;51.988;5.854;2022-12-18T12:35:32;102004.78;;;2.65;61.09
70229;BME280;57617;51.988;5.854;2022-12-18T12:38:25;102001.94;;;2.66;59.13
70229;BME280;57617;51.988;5.854;2022-12-18T12:40:57;101991.38;;;2.65;61.43
70229;BME280;57617;51.988;5.854;2022-12-18T12:43:29;101991.72;;;2.70;61.35
70229;BME280;57617;51.988;5.854;2022-12-18T12:46:09;101988.03;;;2.71;60.01
70229;BME280;57617;51.988;5.854;2022-12-18T12:49:09;101981.84;;;2.70;61.00
70229;BME280;57617;51.988;5.854;2022-12-18T12:51:29;101982.16;;;2.67;61.02
70229;BME280;57617;51.988;5.854;2022-12-18T12:53:57;101970.75;;;2.65;60.45
70229;BME280;57617;51.988;5.854;2022-12-18T12:56:25;101971.44;;;2.67;60.15
70229;BME280;57617;51.988;5.854;2022-12-18T12:59:11;101963.22;;;2.69;59.89
70229;BME280;57617;51.988;5.854;2022-12-18T13:01:55;101955.03;;;2.70;60.29
70229;BME280;57617;51.988;5.854;2022-12-18T13:04:34;101951.34;;;2.71;59.40
70229;BME280;57617;51.988;5.854;2022-12-18T13:07:20;101945.47;;;2.76;59.60
70229;BME280;57617;51.988;5.854;2022-12-18T13:10:11;101942.97;;;2.74;58.48
70229;BME280;57617;51.988;5.854;2022-12-18T13:12:57;101944.66;;;2.75;59.03
70229;BME280;57617;51.988;5.854;2022-12-18T13:15:38;101940.97;;;2.76;60.78
70229;BME280;57617;51.988;5.854;2022-12-18T13:26:36;101935.63;;;2.84;60.01
70229;BME280;57617;51.988;5.854;2022-12-18T13:31:12;101941.00;;;2.84;59.88
70229;BME280;57617;51.988;5.854;2022-12-18T13:33:42;101942.69;;;2.85;59.90
70229;BME280;57617;51.988;5.854;2022-12-18T13:36:29;101937.97;;;2.87;58.87
70229;BME280;57617;51.988;5.854;2022-12-18T13:41:38;101939.84;;;2.87;60.52
70229;BME280;57617;51.988;5.854;2022-12-18T13:44:34;101928.09;;;2.88;59.49
70229;BME280;57617;51.988;5.854;2022-12-18T13:47:01;101932.97;;;2.84;60.40
70229;BME280;57617;51.988;5.854;2022-12-18T13:49:40;101923.75;;;2.87;59.52
70229;BME280;57617;51.988;5.854;2022-12-18T13:52:18;101910.28;;;2.79;59.19
70229;BME280;57617;51.988;5.854;2022-12-18T13:54:48;101911.66;;;2.83;58.84
70229;BME280;57617;51.988;5.854;2022-12-18T13:57:37;101909.97;;;2.82;58.71
70229;BME280;57617;51.988;5.854;2022-12-18T14:02:45;101898.25;;;2.83;58.96
70229;BME280;57617;51.988;5.854;2022-12-18T14:07:46;101861.00;;;2.72;58.92
70229;BME280;57617;51.988;5.854;2022-12-18T14:10:13;101890.84;;;2.85;57.77
70229;BME280;57617;51.988;5.854;2022-12-18T14:12:45;101892.53;;;2.86;59.32
70229;BME280;57617;51.988;5.854;2022-12-18T14:17:57;101889.69;;;2.87;59.33
70229;BME280;57617;51.988;5.854;2022-12-18T14:20:29;101893.88;;;2.90;58.53
70229;BME280;57617;51.988;5.854;2022-12-18T14:22:56;101890.03;;;2.92;59.47
70229;BME280;57617;51.988;5.854;2022-12-18T14:25:24;101887.50;;;2.91;58.20
70229;BME280;57617;51.988;5.854;2022-12-18T14:30:32;101868.22;;;2.87;59.64
70229;BME280;57617;51.988;5.854;2022-12-18T14:35:30;101865.69;;;2.86;58.33
70229;BME280;57617;51.988;5.854;2022-12-18T14:40:35;101848.44;;;2.88;58.76
70229;BME280;57617;51.988;5.854;2022-12-18T14:43:00;101840.38;;;2.88;59.50
70229;BME280;57617;51.988;5.854;2022-12-18T14:45:42;101840.22;;;2.90;58.42